La Vernia, TX (78121)

7:03 PM CST on February 09, 2016 (GMT -0600)
Lake Valley Dr. | | Change Station
CLOSE
Current Station
Personal Weather Station
Location: La Vernia, TX
Elevation: 597 ft
Nearby Weather Stations

Elev 597 ft 29.35 °N, 98.04 °W | Updated 1 minute ago

Clear
Clear
63.2 °F
Feels Like 63.2 °F
N
0.0
Wind Variable Wind from WNW
Gusts 0.0 mph

Today
High -- | Low -- °F
--% Chance of Precip.
Yesterday
High -- | Low -- °F
Precip. -- in
Pressure 30.25 in
Visibility 10.0 miles
Clouds Clear
Dew Point 32 °F
Humidity 31%
Rainfall 0.00 in
Snow Depth Not available.
7:16 AM 6:16 PM
Waxing Crescent, 3% visible
METAR KRND 100058Z AUTO 28003KT 10SM CLR 19/M03 A3025 RMK AO2 SLP243 T01861028
Pressure 30.25 in
Visibility 10.0 miles
Clouds Clear
Dew Point 32 °F
Humidity 31%
Rainfall 0.00 in
Snow Depth Not available.
7:16 AM 6:16 PM
Waxing Crescent, 3% visible
METAR KRND 100058Z AUTO 28003KT 10SM CLR 19/M03 A3025 RMK AO2 SLP243 T01861028

10-Day Weather Forecast

Almanac

Astronomy

Feb. 09, 2016 Rise Set
Actual Time
Civil Twilight
Nautical Twilight
Astronomical Twilight
Moon
Length of Visible Light
Length of Day
Tomorrow will be .
, % of the Moon is Illuminated

Today's Extremes

State Highs State Lows

Community

WunderPhotos

Upload Photos

1,891,752 photos uploaded!

WunderBlog® & News

Nearby

Air Quality

  Air Quality AQ Index Pollutant
Not available.

Snow Depth

Station Depth Elevation

Earthquake Activity

City Distance Mag. Time & Date
Minimum magnitude displayed is 2.5.

Coastal Water Temperatures

Place Temperature

Stations

Nearby Weather Stations

Station Location Temp. Windchill Dew Point Humidity Wind Precip. Elev Updated Type
                   

Watches & Warnings

There are currently no watches in effect.